OAL942 LGIR-LGAL
Flight info
| Callsign | OAL942 |
|---|---|
| Flight time | 0h 57m |
| Altitude | 27000 |
| Route | EPALO UM749 MIL UL617 KEA UG33 LMO |
| Aircraft | B738/M-SDE2E3FGHIRWXY/LB1 |
Departure
| Time | 2026-04-27 19:36 |
|---|---|
| Airport | Heraklion International Nikos Kazantzakis Airport (LGIR) |
Arrival
| Time | 2026-04-27 20:33 |
|---|---|
| Airport | Alexandroupoli Democritus Airport (LGAL) |
| Time | Latitude | Longitude | Altitude | Speed | Heading |
|---|---|---|---|---|---|
| 2026-04-27 19:16 | 35.33868 | 25.17286 | 100 ft | 0 kts | 311° |
| 2026-04-27 19:31 | 35.33886 | 25.17278 | 98 ft | 7 kts | 345° |
| 2026-04-27 19:31 | 35.33919 | 25.17317 | 97 ft | 7 kts | 77° |
| 2026-04-27 19:31 | 35.33921 | 25.17365 | 100 ft | 4 kts | 92° |
| 2026-04-27 19:31 | 35.33916 | 25.17442 | 103 ft | 14 kts | 95° |
| 2026-04-27 19:32 | 35.33905 | 25.17589 | 103 ft | 18 kts | 95° |
| 2026-04-27 19:32 | 35.33894 | 25.17749 | 100 ft | 19 kts | 95° |
| 2026-04-27 19:32 | 35.33882 | 25.17920 | 96 ft | 20 kts | 95° |
| 2026-04-27 19:32 | 35.33870 | 25.18089 | 96 ft | 19 kts | 95° |
| 2026-04-27 19:33 | 35.33860 | 25.18240 | 99 ft | 16 kts | 93° |
| 2026-04-27 19:33 | 35.33855 | 25.18327 | 100 ft | 14 kts | 95° |
| 2026-04-27 19:33 | 35.33842 | 25.18501 | 101 ft | 20 kts | 96° |
| 2026-04-27 19:33 | 35.33826 | 25.18738 | 99 ft | 31 kts | 95° |
| 2026-04-27 19:34 | 35.33815 | 25.18885 | 96 ft | 14 kts | 94° |
| 2026-04-27 19:34 | 35.33855 | 25.18994 | 87 ft | 0 kts | 54° |
| 2026-04-27 19:34 | 35.33859 | 25.19000 | 87 ft | 4 kts | 54° |
| 2026-04-27 19:35 | 35.33914 | 25.18993 | 85 ft | 14 kts | 281° |
| 2026-04-27 19:35 | 35.33920 | 25.18875 | 91 ft | 22 kts | 271° |
| 2026-04-27 19:35 | 35.33947 | 25.18392 | 96 ft | 90 kts | 274° |
| 2026-04-27 19:35 | 35.34020 | 25.17332 | 88 ft | 161 kts | 274° |
| 2026-04-27 19:36 | 35.34134 | 25.15883 | 821 ft | 163 kts | 279° |
| 2026-04-27 19:36 | 35.34304 | 25.14823 | 1959 ft | 118 kts | 289° |
| 2026-04-27 19:36 | 35.34685 | 25.13585 | 1340 ft | 194 kts | 303° |
| 2026-04-27 19:36 | 35.35720 | 25.12551 | 1779 ft | 200 kts | 345° |
| 2026-04-27 19:37 | 35.37131 | 25.12526 | 2248 ft | 209 kts | 8° |
| 2026-04-27 19:37 | 35.38620 | 25.12626 | 2717 ft | 222 kts | 357° |
| 2026-04-27 19:37 | 35.40157 | 25.12287 | 3321 ft | 229 kts | 347° |
| 2026-04-27 19:37 | 35.41701 | 25.11746 | 3900 ft | 238 kts | 344° |
| 2026-04-27 19:38 | 35.43303 | 25.11149 | 4633 ft | 244 kts | 344° |
| 2026-04-27 19:38 | 35.44970 | 25.10538 | 5253 ft | 255 kts | 344° |
| 2026-04-27 19:38 | 35.46688 | 25.09921 | 5935 ft | 262 kts | 344° |
| 2026-04-27 19:38 | 35.48438 | 25.09298 | 6643 ft | 267 kts | 344° |
| 2026-04-27 19:39 | 35.50226 | 25.08662 | 7368 ft | 271 kts | 344° |
| 2026-04-27 19:39 | 35.52029 | 25.08020 | 8088 ft | 274 kts | 344° |
| 2026-04-27 19:39 | 35.53907 | 25.07350 | 8598 ft | 287 kts | 344° |
| 2026-04-27 19:39 | 35.55873 | 25.06650 | 9007 ft | 303 kts | 344° |
| 2026-04-27 19:40 | 35.57937 | 25.05914 | 9393 ft | 318 kts | 344° |
| 2026-04-27 19:40 | 35.60144 | 25.05127 | 9797 ft | 334 kts | 344° |
| 2026-04-27 19:40 | 35.62428 | 25.04311 | 10137 ft | 350 kts | 344° |
| 2026-04-27 19:40 | 35.64809 | 25.03462 | 10557 ft | 363 kts | 344° |
| 2026-04-27 19:41 | 35.67260 | 25.02586 | 11153 ft | 370 kts | 344° |
| 2026-04-27 19:41 | 35.69732 | 25.01701 | 11827 ft | 374 kts | 344° |
| 2026-04-27 19:41 | 35.72226 | 25.00795 | 12466 ft | 379 kts | 343° |
| 2026-04-27 19:41 | 35.74749 | 24.99764 | 13060 ft | 384 kts | 343° |
| 2026-04-27 19:42 | 35.77385 | 24.99236 | 13712 ft | 387 kts | 358° |
| 2026-04-27 19:42 | 35.80091 | 24.99302 | 14324 ft | 391 kts | 4° |
| 2026-04-27 19:42 | 35.82817 | 24.99604 | 14961 ft | 395 kts | 5° |
| 2026-04-27 19:42 | 35.85543 | 24.99935 | 15591 ft | 399 kts | 5° |
| 2026-04-27 19:43 | 35.88332 | 25.00236 | 16208 ft | 402 kts | 4° |
| 2026-04-27 19:43 | 35.91117 | 25.00487 | 16772 ft | 407 kts | 3° |
| 2026-04-27 19:43 | 35.93951 | 25.00699 | 17355 ft | 410 kts | 2° |
| 2026-04-27 19:43 | 35.96811 | 25.00883 | 17956 ft | 413 kts | 1° |
| 2026-04-27 19:44 | 35.99721 | 25.01051 | 18535 ft | 417 kts | 1° |
| 2026-04-27 19:44 | 36.02624 | 25.01210 | 19128 ft | 420 kts | 1° |
| 2026-04-27 19:44 | 36.05549 | 25.01367 | 19717 ft | 423 kts | 1° |
| 2026-04-27 19:44 | 36.08496 | 25.01524 | 20290 ft | 425 kts | 1° |
| 2026-04-27 19:45 | 36.11460 | 25.01684 | 20820 ft | 429 kts | 1° |
| 2026-04-27 19:45 | 36.14414 | 25.01844 | 21366 ft | 431 kts | 1° |
| 2026-04-27 19:45 | 36.17424 | 25.02008 | 21882 ft | 435 kts | 1° |
| 2026-04-27 19:45 | 36.20446 | 25.02173 | 22403 ft | 437 kts | 1° |
| 2026-04-27 19:46 | 36.23529 | 25.02342 | 22887 ft | 441 kts | 1° |
| 2026-04-27 19:46 | 36.26595 | 25.02510 | 23389 ft | 443 kts | 1° |
| 2026-04-27 19:46 | 36.29685 | 25.02681 | 23886 ft | 445 kts | 1° |
| 2026-04-27 19:46 | 36.32766 | 25.02851 | 24366 ft | 448 kts | 0° |
| 2026-04-27 19:47 | 36.35892 | 25.03025 | 24859 ft | 449 kts | 0° |
| 2026-04-27 19:47 | 36.38995 | 25.03197 | 25294 ft | 452 kts | 0° |
| 2026-04-27 19:47 | 36.42154 | 25.03372 | 25736 ft | 454 kts | 0° |
| 2026-04-27 19:47 | 36.45329 | 25.03548 | 26200 ft | 455 kts | 0° |
| 2026-04-27 19:48 | 36.48461 | 25.03723 | 26831 ft | 452 kts | 0° |
| 2026-04-27 19:48 | 36.51641 | 25.03900 | 27060 ft | 456 kts | 0° |
| 2026-04-27 19:48 | 36.54788 | 25.04075 | 27068 ft | 453 kts | 0° |
| 2026-04-27 19:48 | 36.57949 | 25.04252 | 27071 ft | 451 kts | 0° |
| 2026-04-27 19:49 | 36.61056 | 25.04425 | 27072 ft | 452 kts | 0° |
| 2026-04-27 19:49 | 36.64213 | 25.04601 | 27070 ft | 452 kts | 0° |
| 2026-04-27 19:49 | 36.67349 | 25.04776 | 27071 ft | 451 kts | 0° |
| 2026-04-27 19:49 | 36.70484 | 25.04951 | 27072 ft | 451 kts | 0° |
| 2026-04-27 19:50 | 36.73620 | 25.05126 | 27073 ft | 451 kts | 0° |
| 2026-04-27 19:50 | 36.76750 | 25.05301 | 27069 ft | 451 kts | 0° |
| 2026-04-27 19:50 | 36.79903 | 25.05478 | 27069 ft | 451 kts | 0° |
| 2026-04-27 19:50 | 36.83018 | 25.05652 | 27069 ft | 452 kts | 1° |
| 2026-04-27 19:51 | 36.86199 | 25.05830 | 27066 ft | 452 kts | 1° |
| 2026-04-27 19:51 | 36.89348 | 25.06007 | 27069 ft | 453 kts | 1° |
| 2026-04-27 19:51 | 36.92488 | 25.06183 | 27071 ft | 453 kts | 1° |
| 2026-04-27 19:51 | 36.95601 | 25.06358 | 27074 ft | 452 kts | 1° |
| 2026-04-27 19:52 | 36.98761 | 25.06536 | 27069 ft | 453 kts | 1° |
| 2026-04-27 19:52 | 37.01917 | 25.06714 | 27072 ft | 452 kts | 1° |
| 2026-04-27 19:52 | 37.05046 | 25.06891 | 27073 ft | 452 kts | 1° |
| 2026-04-27 19:52 | 37.08190 | 25.07068 | 27069 ft | 452 kts | 1° |
| 2026-04-27 19:53 | 37.14472 | 25.07423 | 27066 ft | 452 kts | 1° |
| 2026-04-27 19:53 | 37.17606 | 25.07600 | 27069 ft | 453 kts | 1° |
| 2026-04-27 19:53 | 37.20745 | 25.07777 | 27072 ft | 452 kts | 1° |
| 2026-04-27 19:54 | 37.23919 | 25.07957 | 27071 ft | 453 kts | 1° |
| 2026-04-27 19:54 | 37.27042 | 25.08134 | 27072 ft | 453 kts | 1° |
| 2026-04-27 19:54 | 37.30197 | 25.08313 | 27072 ft | 453 kts | 1° |
| 2026-04-27 19:54 | 37.33342 | 25.08492 | 27075 ft | 453 kts | 1° |
| 2026-04-27 19:55 | 37.36482 | 25.08670 | 27076 ft | 453 kts | 1° |
| 2026-04-27 19:55 | 37.39635 | 25.08850 | 27072 ft | 453 kts | 1° |
| 2026-04-27 19:55 | 37.42784 | 25.09029 | 27073 ft | 452 kts | 1° |
| 2026-04-27 19:55 | 37.45916 | 25.09207 | 27074 ft | 452 kts | 1° |
| 2026-04-27 19:56 | 37.49072 | 25.09387 | 27074 ft | 452 kts | 1° |
| 2026-04-27 19:56 | 37.52181 | 25.09565 | 27077 ft | 451 kts | 1° |
| 2026-04-27 19:56 | 37.55344 | 25.09746 | 27074 ft | 452 kts | 1° |
| 2026-04-27 19:56 | 37.58493 | 25.09926 | 27078 ft | 452 kts | 1° |
| 2026-04-27 19:57 | 37.61626 | 25.10105 | 27076 ft | 452 kts | 1° |
| 2026-04-27 19:57 | 37.64771 | 25.10285 | 27079 ft | 453 kts | 1° |
| 2026-04-27 19:57 | 37.67902 | 25.10464 | 27082 ft | 453 kts | 1° |
| 2026-04-27 19:57 | 37.71064 | 25.10645 | 27084 ft | 453 kts | 1° |
| 2026-04-27 19:58 | 37.74186 | 25.10825 | 27084 ft | 452 kts | 1° |
| 2026-04-27 19:58 | 37.77356 | 25.11007 | 27081 ft | 453 kts | 1° |
| 2026-04-27 19:58 | 37.80489 | 25.11187 | 27079 ft | 453 kts | 1° |
| 2026-04-27 19:58 | 37.83620 | 25.11367 | 27074 ft | 452 kts | 1° |
| 2026-04-27 19:59 | 37.86761 | 25.11548 | 27077 ft | 452 kts | 1° |
| 2026-04-27 19:59 | 37.89893 | 25.11729 | 27088 ft | 452 kts | 1° |
| 2026-04-27 19:59 | 37.93049 | 25.11911 | 27082 ft | 453 kts | 1° |
| 2026-04-27 19:59 | 37.96218 | 25.12093 | 27084 ft | 452 kts | 1° |
| 2026-04-27 20:00 | 37.99326 | 25.12273 | 27082 ft | 452 kts | 1° |
| 2026-04-27 20:00 | 38.02494 | 25.12456 | 27082 ft | 452 kts | 1° |
| 2026-04-27 20:00 | 38.05607 | 25.12637 | 27086 ft | 452 kts | 1° |
| 2026-04-27 20:00 | 38.08765 | 25.12820 | 27090 ft | 452 kts | 1° |
| 2026-04-27 20:01 | 38.11886 | 25.13001 | 27088 ft | 452 kts | 1° |
| 2026-04-27 20:01 | 38.15058 | 25.13185 | 27084 ft | 452 kts | 0° |
| 2026-04-27 20:01 | 38.18161 | 25.13366 | 27087 ft | 452 kts | 0° |
| 2026-04-27 20:01 | 38.21318 | 25.13550 | 27091 ft | 452 kts | 0° |
| 2026-04-27 20:02 | 38.24458 | 25.13732 | 27088 ft | 452 kts | 1° |
| 2026-04-27 20:02 | 38.27613 | 25.13916 | 27091 ft | 452 kts | 0° |
| 2026-04-27 20:02 | 38.30749 | 25.14099 | 27091 ft | 451 kts | 0° |
| 2026-04-27 20:02 | 38.33860 | 25.14280 | 27093 ft | 452 kts | 0° |
| 2026-04-27 20:03 | 38.37026 | 25.14465 | 27092 ft | 452 kts | 0° |
| 2026-04-27 20:03 | 38.40140 | 25.14647 | 27096 ft | 451 kts | 0° |
| 2026-04-27 20:03 | 38.43310 | 25.14832 | 27094 ft | 452 kts | 0° |
| 2026-04-27 20:03 | 38.46442 | 25.15016 | 27095 ft | 452 kts | 0° |
| 2026-04-27 20:04 | 38.49547 | 25.15198 | 27100 ft | 452 kts | 0° |
| 2026-04-27 20:04 | 38.52712 | 25.15384 | 27102 ft | 452 kts | 0° |
| 2026-04-27 20:04 | 38.55821 | 25.15566 | 27099 ft | 452 kts | 0° |
| 2026-04-27 20:04 | 38.58986 | 25.15752 | 27092 ft | 451 kts | 0° |
| 2026-04-27 20:05 | 38.62104 | 25.15935 | 27097 ft | 451 kts | 0° |
| 2026-04-27 20:05 | 38.65262 | 25.16121 | 27096 ft | 451 kts | 0° |
| 2026-04-27 20:05 | 38.68371 | 25.16304 | 27099 ft | 451 kts | 0° |
| 2026-04-27 20:05 | 38.71530 | 25.16490 | 27099 ft | 451 kts | 0° |
| 2026-04-27 20:06 | 38.74634 | 25.16674 | 27104 ft | 451 kts | 0° |
| 2026-04-27 20:06 | 38.77768 | 25.16859 | 27102 ft | 451 kts | 0° |
| 2026-04-27 20:06 | 38.80915 | 25.17045 | 27103 ft | 451 kts | 0° |
| 2026-04-27 20:06 | 38.84047 | 25.17230 | 27104 ft | 452 kts | 0° |
| 2026-04-27 20:07 | 38.87193 | 25.17416 | 27104 ft | 452 kts | 0° |
| 2026-04-27 20:07 | 38.90351 | 25.17603 | 27107 ft | 452 kts | 0° |
| 2026-04-27 20:07 | 38.93502 | 25.17790 | 27105 ft | 452 kts | 0° |
| 2026-04-27 20:07 | 38.96599 | 25.17974 | 27106 ft | 452 kts | 360° |
| 2026-04-27 20:08 | 38.99771 | 25.18163 | 27104 ft | 451 kts | 360° |
| 2026-04-27 20:08 | 39.02889 | 25.18348 | 27112 ft | 451 kts | 360° |
| 2026-04-27 20:08 | 39.06023 | 25.18535 | 27118 ft | 450 kts | 360° |
| 2026-04-27 20:08 | 39.09153 | 25.18721 | 27113 ft | 451 kts | 360° |
| 2026-04-27 20:09 | 39.12292 | 25.18908 | 27118 ft | 451 kts | 360° |
| 2026-04-27 20:09 | 39.15442 | 25.19096 | 27116 ft | 451 kts | 360° |
| 2026-04-27 20:09 | 39.18570 | 25.19283 | 27121 ft | 451 kts | 360° |
| 2026-04-27 20:09 | 39.21705 | 25.19470 | 27125 ft | 451 kts | 360° |
| 2026-04-27 20:10 | 39.24810 | 25.19656 | 27125 ft | 451 kts | 360° |
| 2026-04-27 20:10 | 39.27954 | 25.19844 | 27117 ft | 451 kts | 360° |
| 2026-04-27 20:10 | 39.31111 | 25.20033 | 27118 ft | 450 kts | 360° |
| 2026-04-27 20:10 | 39.34219 | 25.20220 | 27130 ft | 450 kts | 360° |
| 2026-04-27 20:11 | 39.37380 | 25.20410 | 27134 ft | 450 kts | 0° |
| 2026-04-27 20:11 | 39.40469 | 25.20596 | 27132 ft | 441 kts | 360° |
| 2026-04-27 20:11 | 39.43462 | 25.20782 | 27134 ft | 424 kts | 360° |
| 2026-04-27 20:11 | 39.46376 | 25.20964 | 27144 ft | 408 kts | 360° |
| 2026-04-27 20:12 | 39.49181 | 25.21136 | 27144 ft | 405 kts | 360° |
| 2026-04-27 20:12 | 39.51997 | 25.21304 | 27147 ft | 410 kts | 359° |
| 2026-04-27 20:12 | 39.54839 | 25.21471 | 27145 ft | 410 kts | 359° |
| 2026-04-27 20:12 | 39.57717 | 25.21643 | 27151 ft | 409 kts | 359° |
| 2026-04-27 20:13 | 39.60533 | 25.21811 | 27147 ft | 409 kts | 359° |
| 2026-04-27 20:13 | 39.63373 | 25.21981 | 27151 ft | 409 kts | 359° |
| 2026-04-27 20:13 | 39.66230 | 25.22153 | 27153 ft | 409 kts | 359° |
| 2026-04-27 20:13 | 39.69045 | 25.22323 | 27149 ft | 409 kts | 359° |
| 2026-04-27 20:14 | 39.71899 | 25.22496 | 27152 ft | 408 kts | 359° |
| 2026-04-27 20:14 | 39.74690 | 25.22668 | 27154 ft | 392 kts | 359° |
| 2026-04-27 20:14 | 39.77359 | 25.22837 | 27160 ft | 378 kts | 359° |
| 2026-04-27 20:14 | 39.79962 | 25.22997 | 27116 ft | 380 kts | 359° |
| 2026-04-27 20:15 | 39.82661 | 25.23158 | 26821 ft | 385 kts | 359° |
| 2026-04-27 20:15 | 39.85313 | 25.23317 | 26372 ft | 382 kts | 359° |
| 2026-04-27 20:15 | 39.87936 | 25.23489 | 25859 ft | 381 kts | 0° |
| 2026-04-27 20:15 | 39.90602 | 25.23882 | 24893 ft | 393 kts | 7° |
| 2026-04-27 20:16 | 39.93263 | 25.24876 | 24015 ft | 403 kts | 19° |
| 2026-04-27 20:16 | 39.95772 | 25.26425 | 23355 ft | 405 kts | 24° |
| 2026-04-27 20:16 | 39.98235 | 25.28206 | 22819 ft | 403 kts | 26° |
| 2026-04-27 20:16 | 40.00649 | 25.30058 | 22287 ft | 394 kts | 27° |
| 2026-04-27 20:17 | 40.02927 | 25.31846 | 21843 ft | 380 kts | 27° |
| 2026-04-27 20:17 | 40.05173 | 25.33614 | 21388 ft | 368 kts | 27° |
| 2026-04-27 20:17 | 40.07323 | 25.35298 | 20943 ft | 364 kts | 27° |
| 2026-04-27 20:17 | 40.09488 | 25.36978 | 20476 ft | 362 kts | 27° |
| 2026-04-27 20:18 | 40.11669 | 25.38662 | 20023 ft | 359 kts | 27° |
| 2026-04-27 20:18 | 40.13804 | 25.40303 | 19569 ft | 357 kts | 27° |
| 2026-04-27 20:18 | 40.15924 | 25.41930 | 19121 ft | 354 kts | 27° |
| 2026-04-27 20:18 | 40.18030 | 25.43544 | 18675 ft | 352 kts | 27° |
| 2026-04-27 20:19 | 40.20124 | 25.45148 | 18231 ft | 350 kts | 27° |
| 2026-04-27 20:19 | 40.22233 | 25.46765 | 17777 ft | 347 kts | 27° |
| 2026-04-27 20:19 | 40.24302 | 25.48350 | 17338 ft | 345 kts | 27° |
| 2026-04-27 20:19 | 40.26348 | 25.49919 | 16892 ft | 343 kts | 27° |
| 2026-04-27 20:20 | 40.28395 | 25.51488 | 16453 ft | 341 kts | 27° |
| 2026-04-27 20:20 | 40.30437 | 25.53056 | 16024 ft | 338 kts | 28° |
| 2026-04-27 20:20 | 40.32457 | 25.54607 | 15601 ft | 336 kts | 28° |
| 2026-04-27 20:20 | 40.34443 | 25.56133 | 15171 ft | 333 kts | 28° |
| 2026-04-27 20:21 | 40.36441 | 25.57670 | 14735 ft | 332 kts | 28° |
| 2026-04-27 20:21 | 40.38430 | 25.59202 | 14310 ft | 329 kts | 28° |
| 2026-04-27 20:21 | 40.40403 | 25.60722 | 13885 ft | 327 kts | 28° |
| 2026-04-27 20:21 | 40.42361 | 25.62231 | 13465 ft | 325 kts | 28° |
| 2026-04-27 20:22 | 40.44299 | 25.63726 | 13048 ft | 323 kts | 28° |
| 2026-04-27 20:22 | 40.46217 | 25.65206 | 12623 ft | 321 kts | 29° |
| 2026-04-27 20:22 | 40.48142 | 25.66693 | 12220 ft | 319 kts | 29° |
| 2026-04-27 20:22 | 40.50045 | 25.68164 | 11814 ft | 316 kts | 29° |
| 2026-04-27 20:23 | 40.51929 | 25.69621 | 11402 ft | 314 kts | 29° |
| 2026-04-27 20:23 | 40.53783 | 25.71055 | 11002 ft | 311 kts | 29° |
| 2026-04-27 20:23 | 40.55644 | 25.72496 | 10602 ft | 308 kts | 29° |
| 2026-04-27 20:23 | 40.57463 | 25.73906 | 10364 ft | 300 kts | 29° |
| 2026-04-27 20:24 | 40.59229 | 25.75278 | 10260 ft | 288 kts | 29° |
| 2026-04-27 20:24 | 40.60939 | 25.76606 | 9966 ft | 284 kts | 29° |
| 2026-04-27 20:24 | 40.62619 | 25.77910 | 9590 ft | 282 kts | 29° |
| 2026-04-27 20:24 | 40.64403 | 25.78908 | 9199 ft | 277 kts | 7° |
| 2026-04-27 20:25 | 40.66261 | 25.78630 | 8914 ft | 271 kts | 336° |
| 2026-04-27 20:25 | 40.67699 | 25.77072 | 8648 ft | 268 kts | 308° |
| 2026-04-27 20:25 | 40.68710 | 25.75045 | 8255 ft | 265 kts | 306° |
| 2026-04-27 20:25 | 40.69760 | 25.73149 | 7975 ft | 251 kts | 313° |
| 2026-04-27 20:26 | 40.70935 | 25.71525 | 7685 ft | 236 kts | 320° |
| 2026-04-27 20:26 | 40.72171 | 25.70217 | 7466 ft | 218 kts | 328° |
| 2026-04-27 20:26 | 40.73402 | 25.69196 | 7276 ft | 204 kts | 332° |
| 2026-04-27 20:26 | 40.74616 | 25.68329 | 7019 ft | 194 kts | 335° |
| 2026-04-27 20:27 | 40.75813 | 25.67577 | 6759 ft | 186 kts | 338° |
| 2026-04-27 20:27 | 40.77004 | 25.66928 | 6348 ft | 186 kts | 343° |
| 2026-04-27 20:27 | 40.78236 | 25.66860 | 5940 ft | 179 kts | 18° |
| 2026-04-27 20:27 | 40.79252 | 25.67742 | 5515 ft | 176 kts | 44° |
| 2026-04-27 20:28 | 40.79944 | 25.69039 | 5102 ft | 174 kts | 62° |
| 2026-04-27 20:28 | 40.80293 | 25.70556 | 4772 ft | 171 kts | 73° |
| 2026-04-27 20:28 | 40.80553 | 25.72017 | 4573 ft | 159 kts | 72° |
| 2026-04-27 20:28 | 40.80735 | 25.72931 | 4493 ft | 153 kts | 71° |
| 2026-04-27 20:29 | 40.81116 | 25.74752 | 4357 ft | 151 kts | 71° |
| 2026-04-27 20:29 | 40.81389 | 25.76060 | 4245 ft | 149 kts | 69° |
| 2026-04-27 20:29 | 40.81725 | 25.77353 | 4007 ft | 151 kts | 70° |
| 2026-04-27 20:29 | 40.81970 | 25.78727 | 3565 ft | 155 kts | 76° |
| 2026-04-27 20:30 | 40.82128 | 25.80138 | 3108 ft | 158 kts | 78° |
| 2026-04-27 20:30 | 40.82361 | 25.81590 | 2576 ft | 164 kts | 72° |
| 2026-04-27 20:30 | 40.82655 | 25.83010 | 2154 ft | 158 kts | 72° |
| 2026-04-27 20:30 | 40.82959 | 25.84349 | 1744 ft | 154 kts | 71° |
| 2026-04-27 20:31 | 40.83274 | 25.85713 | 1180 ft | 157 kts | 70° |
| 2026-04-27 20:31 | 40.83603 | 25.86986 | 1152 ft | 137 kts | 70° |
| 2026-04-27 20:31 | 40.83888 | 25.88167 | 1101 ft | 135 kts | 71° |
| 2026-04-27 20:31 | 40.84172 | 25.89351 | 862 ft | 135 kts | 71° |
| 2026-04-27 20:32 | 40.84431 | 25.90535 | 600 ft | 133 kts | 73° |
| 2026-04-27 20:32 | 40.84677 | 25.91707 | 426 ft | 134 kts | 72° |
| 2026-04-27 20:32 | 40.84949 | 25.92901 | 250 ft | 134 kts | 72° |
| 2026-04-27 20:32 | 40.85217 | 25.94077 | 48 ft | 136 kts | 72° |
| 2026-04-27 20:33 | 40.85485 | 25.95189 | 15 ft | 103 kts | 75° |
| 2026-04-27 20:33 | 40.85616 | 25.95775 | 19 ft | 32 kts | 75° |
| 2026-04-27 20:33 | 40.85631 | 25.95852 | 19 ft | 0 kts | 75° |
| 2026-04-27 20:34 | 40.85625 | 25.95892 | 20 ft | 6 kts | 87° |
| 2026-04-27 20:34 | 40.85627 | 25.95853 | 19 ft | 14 kts | 258° |
| 2026-04-27 20:34 | 40.85584 | 25.95658 | 18 ft | 30 kts | 253° |
| 2026-04-27 20:34 | 40.85519 | 25.95377 | 16 ft | 32 kts | 252° |
| 2026-04-27 20:35 | 40.85453 | 25.95102 | 15 ft | 28 kts | 252° |
| 2026-04-27 20:35 | 40.85481 | 25.94862 | 16 ft | 26 kts | 298° |
| 2026-04-27 20:35 | 40.85535 | 25.94653 | 17 ft | 22 kts | 246° |
| 2026-04-27 20:35 | 40.85503 | 25.94515 | 16 ft | 11 kts | 260° |
| 2026-04-27 20:36 | 40.85543 | 25.94497 | 17 ft | 5 kts | 40° |
| 2026-04-27 20:36 | 40.85562 | 25.94518 | 17 ft | 0 kts | 41° |